Pacific Beryl — 9V9809 — position and weather

sailwx.info

Track history (hours):
 
Tides and Currents Weather Stations Pressure Air Temp Water Temp Dewpoint Dewpoint Depression Visibility Wind Speed Wind Dir Waves Ship Positions

Pacific Beryl

Last reported at 2016-Aug-19 17:33 UTC. Time now 2016-Oct-01 12:07 UTC.
Position S 30°07' E 033°02'.
Warning: this ship's position is 42 days out of date.

Length 182 m; draft 9.4 m.

Type: Tanker. MMSI: 566366000.

Date/timePositionNaut miles runAvg speedWind from/ knotsBaromVisibWave heightAir tempDewpointWater temp
2016-Aug-19 17:33S 30°07' E 033°02'1211.7
2016-Aug-19 16:33S 30°14' E 032°52'1212.0
2016-Aug-19 15:31S 30°22' E 032°41'1111.9
2016-Aug-19 14:33S 30°30' E 032°31'1212.1
2016-Aug-19 13:33S 30°38' E 032°20'1211.8
2016-Aug-19 12:33S 30°46' E 032°10'1111.4
2016-Aug-19 11:33S 30°53' E 031°60'1211.7
2016-Aug-19 10:33S 31°00' E 031°49'1611.2
2016-Aug-19 09:09S 31°11' E 031°35'711.4
2016-Aug-19 08:33S 31°15' E 031°29'1111.0
2016-Aug-19 07:33S 31°22' E 031°20'1111.0
2016-Aug-19 06:33S 31°29' E 031°10'  
Track history (hours):
 
Tides and Currents Weather Stations Pressure Air Temp Water Temp Dewpoint Dewpoint Depression Visibility Wind Speed Wind Dir Waves Ship Positions

Pacific Beryl

Last reported at 2016-Aug-19 17:33 UTC. Time now 2016-Oct-01 12:07 UTC.
Position S 30°07' E 033°02'.
Warning: this ship's position is 42 days out of date.

Length 182 m; draft 9.4 m.

Type: Tanker. MMSI: 566366000.

Date/timePositionNaut miles runAvg speedWind from/ knotsBaromVisibWave heightAir tempDewpointWater temp
2016-Aug-19 17:33S 30°07' E 033°02'1211.7
2016-Aug-19 16:33S 30°14' E 032°52'1212.0
2016-Aug-19 15:31S 30°22' E 032°41'1111.9
2016-Aug-19 14:33S 30°30' E 032°31'1212.1
2016-Aug-19 13:33S 30°38' E 032°20'1211.8
2016-Aug-19 12:33S 30°46' E 032°10'1111.4
2016-Aug-19 11:33S 30°53' E 031°60'1211.7
2016-Aug-19 10:33S 31°00' E 031°49'1611.2
2016-Aug-19 09:09S 31°11' E 031°35'711.4
2016-Aug-19 08:33S 31°15' E 031°29'1111.0
2016-Aug-19 07:33S 31°22' E 031°20'1111.0
2016-Aug-19 06:33S 31°29' E 031°10'  

Dump ship's entire track history